Time;durP1;ratioP1;P1;durP2;ratioP2;P2;SDS_P1;SDS_P2;PMS_P1;PMS_P2;Temp;Humidity;BMP_temperature;BMP_pressure;BME280_temperature;BME280_humidity;BME280_pressure;Samples;Min_cycle;Max_cycle;Signal;HPM_P1;HPM_P2
2022/02/06 00:00:45;;;;;;;9.65;2.33;;;6.10;99.90;;;;;;5055024;28;20032;-46
2022/02/06 00:03:13;;;;;;;4.38;2.17;;;6.10;99.90;;;;;;5069618;28;20025;-46
2022/02/06 00:05:38;;;;;;;6.32;2.38;;;6.10;99.90;;;;;;5071452;28;20013;-46
2022/02/06 00:08:11;;;;;;;9.35;2.67;;;6.00;99.90;;;;;;5071016;28;20486;-47
2022/02/06 00:10:37;;;;;;;17.60;3.25;;;5.90;99.90;;;;;;5071663;28;20093;-47
2022/02/06 00:13:03;;;;;;;6.85;2.13;;;5.90;99.90;;;;;;5071597;28;20040;-46
2022/02/06 00:15:30;;;;;;;9.10;2.20;;;5.90;99.90;;;;;;5071601;28;20020;-45
2022/02/06 00:17:56;;;;;;;4.38;2.10;;;5.90;99.90;;;;;;5070708;28;20299;-46
2022/02/06 00:20:25;;;;;;;9.88;2.83;;;5.80;99.90;;;;;;5071606;28;20432;-46
2022/02/06 00:22:55;;;;;;;8.70;2.50;;;5.80;99.90;;;;;;5071386;28;20548;-45
2022/02/06 00:30:54;;;;;;;5.32;1.92;;;5.70;99.90;;;;;;5053573;28;20122;-46
2022/02/06 00:33:36;;;;;;;9.15;2.28;;;5.50;99.90;;;;;;5031279;28;20483;-46
2022/02/06 00:38:05;;;;;;;8.95;3.15;;;5.50;99.90;;;;;;5031352;28;20037;-48
2022/02/06 00:41:21;;;;;;;8.60;3.17;;;5.50;99.90;;;;;;5031473;28;20497;-46
2022/02/06 00:43:50;;;;;;;18.45;3.58;;;5.50;99.90;;;;;;5029975;28;20541;-47
2022/02/06 00:46:17;;;;;;;8.55;3.03;;;5.40;99.90;;;;;;5031148;28;20497;-46
2022/02/06 00:48:48;;;;;;;5.78;2.55;;;5.30;99.90;;;;;;5030302;28;20268;-48
2022/02/06 00:54:06;;;;;;;6.90;2.95;;;5.30;99.90;;;;;;5029807;28;20045;-45
2022/02/06 00:56:31;;;;;;;9.45;3.08;;;5.30;99.90;;;;;;5031030;28;20033;-46
2022/02/06 00:58:57;;;;;;;10.88;2.75;;;5.20;99.90;;;;;;5029867;28;20032;-46
2022/02/06 01:01:23;;;;;;;11.05;2.88;;;5.10;99.90;;;;;;5062457;28;20278;-48
2022/02/06 01:03:49;;;;;;;8.55;2.40;;;5.10;99.90;;;;;;5071180;28;20451;-47
2022/02/06 01:06:14;;;;;;;13.48;3.38;;;5.10;99.90;;;;;;5071091;28;20385;-48
2022/02/06 01:08:40;;;;;;;8.27;2.80;;;5.00;99.90;;;;;;5070361;28;20029;-46
2022/02/06 01:11:09;;;;;;;6.57;2.78;;;5.00;99.90;;;;;;5070714;28;20100;-46
2022/02/06 01:16:21;;;;;;;5.55;3.33;;;5.10;99.90;;;;;;5070536;28;20036;-46
2022/02/06 01:18:56;;;;;;;6.28;2.50;;;5.00;99.90;;;;;;5068729;28;20485;-47
2022/02/06 01:24:03;;;;;;;5.30;2.30;;;5.00;99.90;;;;;;5070776;28;20409;-45
2022/02/06 01:26:44;;;;;;;4.72;2.35;;;5.00;99.90;;;;;;5069116;28;20108;-46
2022/02/06 01:34:29;;;;;;;6.65;2.50;;;5.00;99.90;;;;;;5070448;28;20146;-48
2022/02/06 01:37:07;;;;;;;9.32;2.90;;;5.00;99.90;;;;;;5070255;28;20021;-46
2022/02/06 01:42:17;;;;;;;6.10;2.35;;;5.00;99.90;;;;;;5070213;28;20024;-47
2022/02/06 01:45:08;;;;;;;6.60;2.55;;;5.00;99.90;;;;;;5069796;28;20017;-47
2022/02/06 02:01:36;;;;;;;7.18;2.80;;;5.00;99.90;;;;;;5050152;28;20037;-46
2022/02/06 02:12:27;;;;;;;6.03;2.80;;;4.80;99.90;;;;;;5050130;28;20398;-47
2022/02/06 02:17:36;;;;;;;3.58;2.45;;;4.80;99.90;;;;;;5048848;28;20084;-47
2022/02/06 02:20:39;;;;;;;5.68;2.92;;;4.70;99.90;;;;;;5049340;28;20029;-47
2022/02/06 02:26:04;;;;;;;7.95;3.60;;;4.70;99.90;;;;;;5049493;28;20032;-46
2022/02/06 02:28:53;;;;;;;8.95;2.95;;;4.80;99.90;;;;;;5047769;28;20033;-46
2022/02/06 02:31:54;;;;;;;6.13;3.28;;;4.70;99.90;;;;;;5058224;28;20048;-46
2022/02/06 02:47:25;;;;;;;7.63;2.95;;;4.70;99.90;;;;;;5068408;28;20023;-45
2022/02/06 02:52:49;;;;;;;7.63;2.67;;;4.70;99.90;;;;;;5068870;28;20047;-46
2022/02/06 02:58:18;;;;;;;3.38;2.60;;;4.80;99.90;;;;;;5068320;28;20024;-46
2022/02/06 03:01:00;;;;;;;5.03;2.45;;;4.70;99.90;;;;;;5052936;28;20103;-46
2022/02/06 03:03:30;;;;;;;7.10;2.20;;;4.80;99.90;;;;;;5028980;28;20025;-47
2022/02/06 03:05:57;;;;;;;5.30;2.50;;;4.80;99.90;;;;;;5028660;28;20104;-46
2022/02/06 03:08:23;;;;;;;3.83;2.15;;;4.80;99.90;;;;;;5027781;28;20458;-48
2022/02/06 03:10:55;;;;;;;5.93;2.35;;;4.80;99.90;;;;;;5028561;28;20045;-46
2022/02/06 03:13:24;;;;;;;8.32;2.60;;;4.80;99.90;;;;;;5028926;28;20064;-46
2022/02/06 03:16:04;;;;;;;4.60;2.10;;;4.80;99.90;;;;;;5027159;28;20272;-46
2022/02/06 03:18:34;;;;;;;4.38;2.55;;;4.80;99.90;;;;;;5027914;28;20021;-46
2022/02/06 03:21:01;;;;;;;3.90;2.40;;;4.80;99.90;;;;;;5027335;28;20475;-46
2022/02/06 03:23:28;;;;;;;4.60;2.15;;;4.90;99.90;;;;;;5028584;28;20017;-46
2022/02/06 03:25:54;;;;;;;3.92;2.15;;;4.90;99.90;;;;;;5028694;28;20502;-46
2022/02/06 03:28:21;;;;;;;5.30;2.03;;;5.00;99.90;;;;;;5027778;28;20036;-46
2022/02/06 03:30:47;;;;;;;5.15;2.33;;;5.00;99.90;;;;;;5050495;28;20072;-47
2022/02/06 03:33:13;;;;;;;4.72;2.30;;;5.00;99.90;;;;;;5067878;28;20322;-47
2022/02/06 03:35:39;;;;;;;5.95;2.15;;;5.00;99.90;;;;;;5068199;28;20052;-47
2022/02/06 03:38:05;;;;;;;4.75;1.98;;;5.00;99.90;;;;;;5067734;28;20447;-47
2022/02/06 03:40:38;;;;;;;5.05;2.10;;;5.00;99.90;;;;;;5068306;28;20028;-48
2022/02/06 03:43:15;;;;;;;8.50;2.42;;;5.00;99.90;;;;;;5068237;28;20470;-48
2022/02/06 03:48:17;;;;;;;3.08;1.95;;;5.10;99.90;;;;;;5067595;28;20089;-47
2022/02/06 03:50:50;;;;;;;5.15;2.20;;;5.00;99.90;;;;;;5068204;28;20031;-48
2022/02/06 03:53:19;;;;;;;7.20;2.10;;;5.10;99.90;;;;;;5068268;28;20047;-46
2022/02/06 03:55:47;;;;;;;4.93;2.13;;;5.10;99.90;;;;;;5066784;28;20034;-46
2022/02/06 03:58:12;;;;;;;6.88;2.20;;;5.10;99.90;;;;;;5067375;28;20542;-47
2022/02/06 04:00:38;;;;;;;5.03;1.60;;;5.10;99.90;;;;;;5054235;28;20100;-46
2022/02/06 04:03:04;;;;;;;5.20;1.88;;;5.10;99.90;;;;;;5064686;28;20024;-46
2022/02/06 04:05:30;;;;;;;5.32;2.50;;;5.10;99.90;;;;;;5068271;28;20027;-47
2022/02/06 04:07:55;;;;;;;5.43;2.20;;;5.10;99.90;;;;;;5067634;28;20031;-48
2022/02/06 04:10:21;;;;;;;4.07;2.33;;;5.10;99.90;;;;;;5068479;28;20410;-48
2022/02/06 04:12:49;;;;;;;4.03;1.77;;;5.10;99.90;;;;;;5067981;28;20040;-46
2022/02/06 04:15:24;;;;;;;3.92;1.60;;;5.10;99.90;;;;;;5067718;28;20111;-46
2022/02/06 04:17:56;;;;;;;3.55;1.95;;;5.20;99.90;;;;;;5067929;28;20021;-48
2022/02/06 04:20:22;;;;;;;4.40;2.08;;;5.20;99.90;;;;;;5071996;28;20027;-46
2022/02/06 04:22:48;;;;;;;3.05;1.60;;;5.30;99.90;;;;;;5071538;28;20020;-47
2022/02/06 04:25:13;;;;;;;6.05;1.90;;;5.20;99.90;;;;;;5071551;28;20513;-47
2022/02/06 04:27:39;;;;;;;2.47;1.58;;;5.20;99.90;;;;;;5070826;28;20031;-46
2022/02/06 04:30:05;;;;;;;4.25;1.80;;;5.30;99.90;;;;;;5062234;28;20194;-47
2022/02/06 04:32:32;;;;;;;3.70;1.50;;;5.30;99.90;;;;;;5065076;28;20066;-46
2022/02/06 04:34:57;;;;;;;3.13;1.80;;;5.30;99.90;;;;;;5071431;28;20382;-47
2022/02/06 04:37:43;;;;;;;3.20;1.75;;;5.20;99.90;;;;;;5070567;28;20025;-47
2022/02/06 04:40:19;;;;;;;4.13;2.22;;;5.30;99.90;;;;;;5071197;28;20047;-47
2022/02/06 04:48:38;;;;;;;4.85;2.10;;;5.30;99.90;;;;;;5069812;28;20652;-47
2022/02/06 04:51:29;;;;;;;2.97;1.90;;;5.30;99.90;;;;;;5070962;28;20033;-46
2022/02/06 05:18:32;;;;;;;5.43;1.77;;;5.30;99.90;;;;;;5069911;28;20025;-48
2022/02/06 05:21:29;;;;;;;1.90;1.52;;;5.40;99.90;;;;;;5070741;28;20025;-46
2022/02/06 05:26:43;;;;;;;3.03;1.83;;;5.30;99.90;;;;;;5070614;28;20081;-47
2022/02/06 05:31:57;;;;;;;2.60;1.70;;;5.40;99.90;;;;;;5061997;28;20111;-46
2022/02/06 05:34:23;;;;;;;1.92;1.50;;;5.40;99.90;;;;;;5070183;28;20482;-46
2022/02/06 05:36:48;;;;;;;4.38;1.67;;;5.40;99.90;;;;;;5070156;28;20078;-46
2022/02/06 05:39:14;;;;;;;2.78;2.00;;;5.40;99.90;;;;;;5069390;28;20027;-46
2022/02/06 05:41:41;;;;;;;8.65;1.88;;;5.40;99.90;;;;;;5070165;28;20485;-47
2022/02/06 05:44:06;;;;;;;2.13;1.52;;;5.30;99.90;;;;;;5069916;28;20036;-47
2022/02/06 05:46:32;;;;;;;3.75;1.63;;;5.30;99.90;;;;;;5069801;28;20429;-47
2022/02/06 05:48:58;;;;;;;3.92;1.70;;;5.40;99.90;;;;;;5067967;28;20035;-46
2022/02/06 05:51:23;;;;;;;2.33;1.58;;;5.40;99.90;;;;;;5068795;28;20079;-47
2022/02/06 05:53:49;;;;;;;1.52;1.30;;;5.30;99.90;;;;;;5068663;28;20468;-46
2022/02/06 05:56:17;;;;;;;1.73;1.63;;;5.30;99.90;;;;;;5069905;28;20528;-46
2022/02/06 05:58:43;;;;;;;2.25;1.50;;;5.40;99.90;;;;;;5066045;28;20502;-47
2022/02/06 06:01:09;;;;;;;4.35;2.10;;;5.40;99.90;;;;;;5058799;28;20021;-49
2022/02/06 06:03:35;;;;;;;4.10;1.58;;;5.40;99.90;;;;;;5068601;28;20103;-48
2022/02/06 06:06:01;;;;;;;3.38;1.52;;;5.40;99.90;;;;;;5069717;28;20108;-47
2022/02/06 06:08:26;;;;;;;4.82;2.35;;;5.30;99.90;;;;;;5069027;28;20036;-46
2022/02/06 06:10:52;;;;;;;3.67;1.30;;;5.40;99.90;;;;;;5069662;28;20033;-46
2022/02/06 06:13:17;;;;;;;2.03;1.60;;;5.40;99.90;;;;;;5068274;28;20024;-47
2022/02/06 06:15:43;;;;;;;2.35;1.30;;;5.40;99.90;;;;;;5069221;28;20103;-47
2022/02/06 06:18:12;;;;;;;3.42;1.73;;;5.40;99.90;;;;;;5068751;28;20119;-46
2022/02/06 06:20:38;;;;;;;2.58;1.45;;;5.40;99.90;;;;;;5069068;28;20028;-46
2022/02/06 06:23:04;;;;;;;2.65;1.67;;;5.40;99.90;;;;;;5069577;28;20025;-47
2022/02/06 06:25:38;;;;;;;1.80;1.50;;;5.40;99.90;;;;;;5069628;28;20043;-46
2022/02/06 06:28:05;;;;;;;3.60;1.48;;;5.40;99.90;;;;;;5068714;28;20028;-46
2022/02/06 06:30:30;;;;;;;1.88;1.50;;;5.40;99.90;;;;;;5057751;28;20029;-46
2022/02/06 06:32:56;;;;;;;1.73;1.40;;;5.40;99.90;;;;;;5066000;28;20051;-47
2022/02/06 06:35:21;;;;;;;2.17;1.40;;;5.40;99.90;;;;;;5068042;28;20016;-46
2022/02/06 06:37:49;;;;;;;2.55;1.52;;;5.40;99.90;;;;;;5068336;28;20059;-47
2022/02/06 06:40:15;;;;;;;1.77;1.50;;;5.40;99.90;;;;;;5069191;28;20028;-48
2022/02/06 06:42:40;;;;;;;3.47;1.65;;;5.40;99.90;;;;;;5068201;28;20021;-46
2022/02/06 06:45:06;;;;;;;2.80;1.65;;;5.50;99.90;;;;;;5068615;28;20457;-46
2022/02/06 06:47:32;;;;;;;1.75;1.30;;;5.40;99.90;;;;;;5068137;28;20028;-49
2022/02/06 06:49:57;;;;;;;3.13;1.90;;;5.40;99.90;;;;;;5068916;28;20121;-46
2022/02/06 06:52:23;;;;;;;1.98;1.63;;;5.40;99.90;;;;;;5068685;28;20032;-47
2022/02/06 06:54:58;;;;;;;3.65;1.45;;;5.40;99.90;;;;;;5068688;28;20052;-45
2022/02/06 06:57:27;;;;;;;2.38;1.90;;;5.40;99.90;;;;;;5066610;28;20128;-46
2022/02/06 07:04:58;;;;;;;3.10;1.85;;;5.40;99.90;;;;;;5069200;28;20090;-46
2022/02/06 07:07:27;;;;;;;2.42;1.90;;;5.50;99.90;;;;;;5068055;28;20025;-47
2022/02/06 07:09:53;;;;;;;4.53;2.13;;;5.40;99.90;;;;;;5069284;28;20082;-46
2022/02/06 07:12:19;;;;;;;2.72;1.60;;;5.50;99.90;;;;;;5068595;28;20020;-47
2022/02/06 07:14:47;;;;;;;3.10;2.08;;;5.50;99.90;;;;;;5068581;28;20032;-46
2022/02/06 07:17:14;;;;;;;2.20;1.63;;;5.50;99.90;;;;;;5052366;28;20025;-45
2022/02/06 07:19:41;;;;;;;2.83;1.80;;;5.50;99.90;;;;;;5036472;28;20029;-46
2022/02/06 07:22:10;;;;;;;2.83;1.98;;;5.50;99.90;;;;;;5036521;28;20502;-46
2022/02/06 07:24:37;;;;;;;2.30;1.67;;;5.50;99.90;;;;;;5041641;28;20031;-46
2022/02/06 07:27:05;;;;;;;4.25;1.77;;;5.50;99.90;;;;;;5048577;28;20210;-47
2022/02/06 07:29:31;;;;;;;2.15;1.95;;;5.50;99.90;;;;;;5048744;28;20035;-45
2022/02/06 07:32:00;;;;;;;2.03;1.73;;;5.50;99.90;;;;;;5060088;28;20077;-46
2022/02/06 07:34:25;;;;;;;1.92;1.45;;;5.50;99.90;;;;;;5066842;28;20394;-46
2022/02/06 07:36:51;;;;;;;1.55;1.42;;;5.50;99.90;;;;;;5068431;28;20029;-46
2022/02/06 07:39:16;;;;;;;2.97;1.55;;;5.40;99.90;;;;;;5057656;28;20032;-45
2022/02/06 07:41:42;;;;;;;1.80;1.55;;;5.40;99.90;;;;;;5048337;28;20433;-48
2022/02/06 07:44:07;;;;;;;2.35;1.50;;;5.50;99.90;;;;;;5047572;28;20021;-45
2022/02/06 07:46:42;;;;;;;1.70;1.50;;;5.50;99.90;;;;;;5048345;28;20044;-45
2022/02/06 07:49:08;;;;;;;2.10;1.20;;;5.50;99.90;;;;;;5047502;28;20493;-45
2022/02/06 07:51:35;;;;;;;1.83;1.38;;;5.50;99.90;;;;;;5047839;28;20240;-46
2022/02/06 07:54:02;;;;;;;2.72;1.48;;;5.40;99.90;;;;;;5050612;28;20032;-46
2022/02/06 07:56:27;;;;;;;2.67;1.40;;;5.40;99.90;;;;;;5052243;28;20379;-45
2022/02/06 07:58:52;;;;;;;2.05;1.17;;;5.40;99.90;;;;;;5049417;28;20039;-46
2022/02/06 08:01:18;;;;;;;2.38;1.30;;;5.50;99.90;;;;;;5066353;28;20103;-45
2022/02/06 08:03:43;;;;;;;1.98;1.42;;;5.50;99.90;;;;;;5051882;28;20024;-45
2022/02/06 08:06:10;;;;;;;3.35;1.17;;;5.40;99.90;;;;;;5051939;28;20043;-45
2022/02/06 08:08:36;;;;;;;1.80;1.23;;;5.50;99.90;;;;;;5051182;28;20033;-47
2022/02/06 08:11:03;;;;;;;3.88;1.15;;;5.50;99.90;;;;;;5051727;28;20100;-46
2022/02/06 08:13:44;;;;;;;2.60;2.28;;;5.50;99.90;;;;;;5051985;28;20124;-45
2022/02/06 08:16:10;;;;;;;1.10;1.00;;;5.50;99.90;;;;;;5051440;28;20021;-46
2022/02/06 08:18:37;;;;;;;1.52;1.10;;;5.50;99.90;;;;;;5051031;28;20032;-46
2022/02/06 08:21:03;;;;;;;4.45;1.25;;;5.40;99.90;;;;;;5051501;28;20505;-46
2022/02/06 08:23:29;;;;;;;2.05;1.25;;;5.40;99.90;;;;;;5051704;28;20107;-46
2022/02/06 08:25:56;;;;;;;1.48;1.17;;;5.40;99.90;;;;;;5051478;28;20017;-48
2022/02/06 08:28:21;;;;;;;1.83;1.30;;;5.40;99.90;;;;;;5050861;28;20037;-45
2022/02/06 08:30:47;;;;;;;1.23;1.10;;;5.50;99.90;;;;;;5056899;28;20112;-45
2022/02/06 08:33:12;;;;;;;2.35;1.10;;;5.50;99.90;;;;;;5071024;28;20032;-45
2022/02/06 08:35:38;;;;;;;1.67;1.58;;;5.50;99.90;;;;;;5071113;28;20111;-45
2022/02/06 08:38:03;;;;;;;1.30;1.10;;;5.50;99.90;;;;;;5070626;28;20037;-45
2022/02/06 08:40:29;;;;;;;1.90;1.08;;;5.60;99.90;;;;;;5071255;28;20082;-45
2022/02/06 08:42:54;;;;;;;1.88;1.10;;;5.60;99.90;;;;;;5071427;28;20025;-45
2022/02/06 08:45:20;;;;;;;1.58;1.00;;;5.60;99.90;;;;;;5070777;28;20033;-46
2022/02/06 08:47:46;;;;;;;1.75;1.00;;;5.60;99.90;;;;;;5070898;28;20028;-45
2022/02/06 08:50:12;;;;;;;2.05;1.10;;;5.50;99.90;;;;;;5070999;28;20035;-45
2022/02/06 08:52:39;;;;;;;2.47;1.23;;;5.60;99.90;;;;;;5070877;28;20111;-44
2022/02/06 08:55:08;;;;;;;2.42;0.82;;;5.60;99.90;;;;;;5069709;28;20032;-45
2022/02/06 08:57:34;;;;;;;1.45;1.00;;;5.60;99.90;;;;;;5053412;28;20542;-45
2022/02/06 08:59:59;;;;;;;1.75;0.98;;;5.60;99.90;;;;;;5054635;28;20078;-45
2022/02/06 09:02:25;;;;;;;2.17;0.90;;;5.60;99.90;;;;;;5063350;28;20032;-44
2022/02/06 09:04:51;;;;;;;2.45;0.98;;;5.60;99.90;;;;;;5069727;28;20027;-45
2022/02/06 09:07:19;;;;;;;2.50;1.38;;;5.60;99.90;;;;;;5070118;28;20052;-45
2022/02/06 09:09:48;;;;;;;3.63;1.17;;;5.70;99.90;;;;;;5070880;28;20031;-44
2022/02/06 09:12:14;;;;;;;1.92;1.00;;;5.60;99.90;;;;;;5070483;28;20104;-45
2022/02/06 09:14:40;;;;;;;2.45;1.02;;;5.60;99.90;;;;;;5070590;28;20032;-45
2022/02/06 09:17:06;;;;;;;3.22;0.75;;;5.70;99.90;;;;;;5070691;28;20482;-44
2022/02/06 09:19:35;;;;;;;1.13;1.00;;;5.60;99.90;;;;;;5069859;28;20028;-46
2022/02/06 09:22:00;;;;;;;1.20;0.90;;;5.60;99.90;;;;;;5070432;28;20486;-47
2022/02/06 09:24:26;;;;;;;2.45;1.00;;;5.60;99.90;;;;;;5070669;28;20053;-47
2022/02/06 09:26:51;;;;;;;1.38;1.15;;;5.60;99.90;;;;;;5070583;28;20104;-47
2022/02/06 09:29:17;;;;;;;1.33;1.15;;;5.50;99.90;;;;;;5067413;28;20036;-47
2022/02/06 09:31:47;;;;;;;1.10;0.90;;;5.70;99.90;;;;;;5061916;28;20401;-47
2022/02/06 09:36:39;;;;;;;1.40;1.30;;;5.70;99.90;;;;;;5070463;28;20144;-47
2022/02/06 09:39:09;;;;;;;0.93;0.88;;;5.70;99.90;;;;;;5068630;28;20424;-47
2022/02/06 09:41:36;;;;;;;1.83;1.10;;;5.70;99.90;;;;;;5070529;28;20021;-47
2022/02/06 09:44:02;;;;;;;3.67;2.13;;;5.80;99.90;;;;;;5070508;28;20029;-46
2022/02/06 09:46:28;;;;;;;0.88;0.88;;;5.70;99.90;;;;;;5070554;28;20473;-46
2022/02/06 09:48:56;;;;;;;1.33;0.93;;;5.70;99.90;;;;;;5069528;28;20032;-47
2022/02/06 09:51:23;;;;;;;2.22;1.05;;;5.70;99.90;;;;;;5070449;28;20040;-46
2022/02/06 09:53:48;;;;;;;1.35;1.00;;;5.80;99.90;;;;;;5068456;28;20047;-49
2022/02/06 09:56:16;;;;;;;1.55;0.90;;;5.90;99.90;;;;;;5041330;28;20427;-47
2022/02/06 10:01:16;;;;;;;1.33;0.93;;;5.90;99.90;;;;;;5060856;28;20028;-47
2022/02/06 10:03:47;;;;;;;1.10;0.82;;;5.90;99.90;;;;;;5069800;28;20043;-49
2022/02/06 10:06:21;;;;;;;0.82;0.77;;;6.00;99.90;;;;;;5069834;28;20024;-46
2022/02/06 10:08:51;;;;;;;1.85;1.10;;;6.00;99.90;;;;;;5069433;28;20063;-47
2022/02/06 10:11:18;;;;;;;1.23;1.00;;;6.00;99.90;;;;;;5069716;28;20526;-47
2022/02/06 10:13:46;;;;;;;1.60;1.00;;;6.20;99.90;;;;;;5069321;28;20398;-47
2022/02/06 10:16:15;;;;;;;2.42;1.67;;;6.30;99.90;;;;;;5069286;28;20034;-48
2022/02/06 10:18:43;;;;;;;1.20;0.88;;;6.30;99.90;;;;;;5069038;28;20532;-47
2022/02/06 10:21:13;;;;;;;0.90;0.90;;;6.40;99.90;;;;;;5069544;28;20079;-48
2022/02/06 10:26:18;;;;;;;1.42;0.85;;;6.20;99.90;;;;;;5069061;28;20474;-47
2022/02/06 10:28:47;;;;;;;1.15;0.90;;;6.20;99.90;;;;;;5067317;28;20458;-48
2022/02/06 10:31:16;;;;;;;3.70;0.80;;;6.20;99.90;;;;;;5058401;28;20391;-47
2022/02/06 10:33:50;;;;;;;0.88;0.70;;;6.20;99.90;;;;;;5069005;28;20020;-47
2022/02/06 10:36:17;;;;;;;1.08;0.82;;;6.10;99.90;;;;;;5069097;28;20104;-48
2022/02/06 10:38:45;;;;;;;3.08;1.15;;;6.10;99.90;;;;;;5068406;28;20094;-47
2022/02/06 10:41:17;;;;;;;2.47;1.23;;;6.10;99.90;;;;;;5069284;28;20336;-47
2022/02/06 10:44:03;;;;;;;1.45;0.80;;;6.10;99.90;;;;;;5069210;28;20052;-48
2022/02/06 10:46:42;;;;;;;2.90;1.02;;;6.10;99.90;;;;;;5068935;28;20021;-47
2022/02/06 10:49:15;;;;;;;1.52;0.98;;;6.20;99.90;;;;;;5068649;28;20032;-47
2022/02/06 10:51:47;;;;;;;0.95;0.80;;;6.20;99.90;;;;;;5069087;28;20052;-47
2022/02/06 10:54:20;;;;;;;0.77;0.70;;;6.30;99.90;;;;;;5069128;28;20063;-48
2022/02/06 10:57:04;;;;;;;1.00;0.90;;;6.30;99.90;;;;;;5069021;28;20032;-47
2022/02/06 10:59:56;;;;;;;3.00;0.93;;;6.30;99.90;;;;;;5055905;28;20024;-49
2022/02/06 11:02:25;;;;;;;1.60;0.90;;;6.20;99.90;;;;;;5027868;28;20484;-48
2022/02/06 11:04:59;;;;;;;1.70;0.90;;;6.20;99.90;;;;;;5029125;28;20029;-48
2022/02/06 11:07:25;;;;;;;1.63;1.10;;;6.30;99.90;;;;;;5028459;28;20023;-50
2022/02/06 11:09:51;;;;;;;2.80;1.10;;;6.20;99.90;;;;;;5028971;28;20260;-47
2022/02/06 11:12:21;;;;;;;1.27;0.95;;;6.30;99.90;;;;;;5028987;28;20060;-47
2022/02/06 11:14:51;;;;;;;1.20;1.10;;;6.30;99.90;;;;;;5028281;28;20055;-49
2022/02/06 11:17:23;;;;;;;1.50;0.80;;;6.20;99.90;;;;;;5027000;28;20087;-47
2022/02/06 11:20:08;;;;;;;1.35;1.20;;;6.20;99.90;;;;;;5028479;28;20026;-47
2022/02/06 11:22:35;;;;;;;2.40;0.80;;;6.30;99.90;;;;;;5028608;28;20018;-46
2022/02/06 11:25:04;;;;;;;1.40;0.95;;;6.40;99.90;;;;;;5028736;28;20406;-47
2022/02/06 11:27:31;;;;;;;1.02;0.70;;;6.40;99.90;;;;;;5028634;28;20034;-46
2022/02/06 11:29:57;;;;;;;1.58;0.60;;;6.50;99.90;;;;;;5041635;28;20021;-48
2022/02/06 11:32:27;;;;;;;2.20;1.02;;;6.40;99.90;;;;;;5064313;28;20262;-48
2022/02/06 11:34:54;;;;;;;0.70;0.70;;;6.40;99.90;;;;;;5071342;28;20021;-47
2022/02/06 11:46:04;;;;;;;1.63;0.70;;;6.30;99.90;;;;;;5072324;28;20144;-48
2022/02/06 11:48:32;;;;;;;2.70;0.80;;;6.40;99.90;;;;;;5071950;28;20227;-46
2022/02/06 11:50:58;;;;;;;0.65;0.65;;;6.50;99.90;;;;;;5072353;28;20023;-46
2022/02/06 11:53:42;;;;;;;1.35;0.60;;;6.50;99.90;;;;;;5072334;28;20032;-47
2022/02/06 11:56:23;;;;;;;1.48;0.70;;;6.50;99.90;;;;;;5072406;28;20027;-46
2022/02/06 11:58:52;;;;;;;0.80;0.60;;;6.60;99.90;;;;;;5071806;28;20386;-48
2022/02/06 12:01:17;;;;;;;0.65;0.63;;;6.70;99.90;;;;;;5052280;28;20021;-46
2022/02/06 12:03:50;;;;;;;1.02;0.70;;;6.80;99.90;;;;;;5067432;28;20082;-46
2022/02/06 12:06:16;;;;;;;1.55;0.90;;;6.80;99.90;;;;;;5072073;28;20047;-48
2022/02/06 12:09:04;;;;;;;0.55;0.55;;;6.90;99.90;;;;;;5071504;28;20059;-49
2022/02/06 12:11:34;;;;;;;1.42;0.47;;;7.00;99.90;;;;;;5071965;28;20020;-47
2022/02/06 12:14:14;;;;;;;0.98;0.60;;;7.00;99.90;;;;;;5072300;28;20032;-46
2022/02/06 12:16:51;;;;;;;0.87;0.53;;;7.00;99.90;;;;;;5071585;28;20052;-47
2022/02/06 12:19:33;;;;;;;1.05;0.70;;;7.00;99.90;;;;;;5071321;28;20344;-47
2022/02/06 12:22:28;;;;;;;0.70;0.60;;;7.10;99.90;;;;;;5071781;28;20095;-46
2022/02/06 12:25:31;;;;;;;0.98;0.77;;;7.10;99.90;;;;;;5072111;28;20447;-47
2022/02/06 12:28:13;;;;;;;1.05;0.55;;;7.10;99.90;;;;;;5071467;28;20517;-46
2022/02/06 12:30:41;;;;;;;0.75;0.73;;;7.10;99.90;;;;;;5054872;28;20024;-46
2022/02/06 12:33:39;;;;;;;0.70;0.70;;;7.10;99.90;;;;;;5061394;28;20047;-46
2022/02/06 12:38:48;;;;;;;0.82;0.60;;;7.20;99.90;;;;;;5050440;28;20094;-48
2022/02/06 12:41:28;;;;;;;1.13;0.60;;;7.30;99.90;;;;;;5050810;28;20029;-47
2022/02/06 12:43:58;;;;;;;0.35;0.30;;;7.20;99.90;;;;;;5051688;28;20036;-47
2022/02/06 12:46:25;;;;;;;1.60;0.80;;;7.20;99.90;;;;;;5051145;28;20109;-49
2022/02/06 12:48:52;;;;;;;0.77;0.68;;;7.10;99.90;;;;;;5050911;28;20060;-47
2022/02/06 12:51:44;;;;;;;1.40;0.60;;;7.10;99.90;;;;;;5051416;28;20021;-46
2022/02/06 12:54:12;;;;;;;0.70;0.50;;;7.10;99.90;;;;;;5047883;28;20072;-47
2022/02/06 12:56:39;;;;;;;0.70;0.60;;;7.00;99.90;;;;;;5051600;28;20099;-47
2022/02/06 12:59:05;;;;;;;0.52;0.47;;;7.00;99.90;;;;;;5049467;28;20418;-46
2022/02/06 13:01:42;;;;;;;1.90;0.52;;;7.00;99.90;;;;;;5052489;28;20019;-49
2022/02/06 13:04:11;;;;;;;0.57;0.50;;;6.90;99.90;;;;;;5069742;28;20021;-48
2022/02/06 13:06:42;;;;;;;0.63;0.40;;;6.90;99.90;;;;;;5070354;28;20024;-47
2022/02/06 13:09:15;;;;;;;;;;;6.90;99.90;;;;;;5069181;28;20394;-47
2022/02/06 13:12:01;;;;;;;1.98;0.65;;;6.80;99.90;;;;;;5061915;28;20362;-51
2022/02/06 13:15:16;;;;;;;3.20;0.80;;;6.80;99.90;;;;;;5046459;28;20041;-52
2022/02/06 13:18:15;;;;;;;1.42;0.75;;;6.80;99.90;;;;;;5036757;28;20017;-52
2022/02/06 13:21:02;;;;;;;0.50;0.50;;;6.70;99.90;;;;;;5038843;28;20112;-51
2022/02/06 13:26:13;;;;;;;0.57;0.57;;;6.70;99.90;;;;;;5036804;28;20022;-52
2022/02/06 13:28:48;;;;;;;1.75;0.60;;;6.70;99.90;;;;;;5030024;28;20083;-52
2022/02/06 13:38:42;;;;;;;1.02;0.47;;;6.60;99.90;;;;;;5030111;28;20132;-46
2022/02/06 13:41:18;;;;;;;2.10;0.50;;;6.50;99.90;;;;;;5037055;28;20090;-49
2022/02/06 13:43:44;;;;;;;0.30;0.30;;;6.40;99.90;;;;;;5040763;28;20035;-47
2022/02/06 13:46:23;;;;;;;1.83;0.60;;;6.40;99.90;;;;;;5049635;28;20052;-49
2022/02/06 13:48:49;;;;;;;1.27;0.35;;;6.40;99.90;;;;;;5048886;28;20044;-47
2022/02/06 13:51:16;;;;;;;0.40;0.40;;;6.30;99.90;;;;;;5042222;28;20355;-48
2022/02/06 13:54:00;;;;;;;0.75;0.40;;;6.20;99.90;;;;;;5038931;28;20063;-47
2022/02/06 13:56:28;;;;;;;0.57;0.30;;;6.20;99.90;;;;;;5048360;28;20025;-48
2022/02/06 13:59:03;;;;;;;4.57;0.73;;;6.20;99.90;;;;;;5049071;28;20025;-50
2022/02/06 14:01:43;;;;;;;0.40;0.40;;;6.20;99.90;;;;;;5043520;28;20193;-50
2022/02/06 14:04:29;;;;;;;0.98;0.50;;;6.20;99.90;;;;;;5040862;28;20029;-51
2022/02/06 14:07:06;;;;;;;0.30;0.20;;;6.10;99.90;;;;;;5035519;28;20052;-50
2022/02/06 14:12:09;;;;;;;0.73;0.50;;;6.00;99.90;;;;;;5047929;28;20374;-48
2022/02/06 14:14:38;;;;;;;0.38;0.38;;;5.90;99.90;;;;;;5052619;28;20035;-51
2022/02/06 14:17:08;;;;;;;2.60;0.40;;;5.90;99.90;;;;;;5048190;28;20025;-50
2022/02/06 14:19:42;;;;;;;0.30;0.30;;;5.80;99.90;;;;;;5049103;28;20399;-45
2022/02/06 14:22:09;;;;;;;0.60;0.30;;;5.80;99.90;;;;;;5049371;28;20398;-48
2022/02/06 14:25:08;;;;;;;0.40;0.40;;;5.80;99.90;;;;;;5042333;28;20022;-47
2022/02/06 14:27:38;;;;;;;0.40;0.40;;;5.80;99.90;;;;;;5027679;28;20051;-47
2022/02/06 14:30:12;;;;;;;0.50;0.40;;;5.70;99.90;;;;;;5036886;28;20413;-48
2022/02/06 14:32:59;;;;;;;0.60;0.50;;;5.70;99.90;;;;;;5040403;28;20028;-45
2022/02/06 14:35:50;;;;;;;0.50;0.50;;;5.60;99.90;;;;;;5047734;28;20021;-45
2022/02/06 14:38:28;;;;;;;1.65;0.55;;;5.70;99.90;;;;;;5046860;28;20059;-47
2022/02/06 14:41:19;;;;;;;0.60;0.60;;;5.70;99.90;;;;;;5046917;28;20055;-45
2022/02/06 14:43:54;;;;;;;2.20;0.70;;;5.70;99.90;;;;;;5031485;28;20505;-46
2022/02/06 14:46:20;;;;;;;0.70;0.70;;;5.70;99.90;;;;;;5038200;28;20017;-49
2022/02/06 14:48:45;;;;;;;0.50;0.50;;;5.60;99.90;;;;;;5035779;28;20121;-49
2022/02/06 14:51:13;;;;;;;0.60;0.60;;;5.70;99.90;;;;;;5029309;28;20030;-48
2022/02/06 14:53:39;;;;;;;0.63;0.63;;;5.60;99.90;;;;;;5028756;28;20124;-47
2022/02/06 14:56:08;;;;;;;0.70;0.52;;;5.60;99.90;;;;;;5028987;28;20116;-49
2022/02/06 14:58:34;;;;;;;1.10;0.60;;;5.60;99.90;;;;;;5041197;28;20021;-47
2022/02/06 15:00:59;;;;;;;2.90;0.60;;;5.60;99.90;;;;;;5049793;28;20481;-48
2022/02/06 15:03:25;;;;;;;1.25;0.90;;;5.60;99.90;;;;;;5060518;28;20111;-47
2022/02/06 15:05:51;;;;;;;1.77;0.68;;;5.50;99.90;;;;;;5068774;28;20016;-48
2022/02/06 15:08:18;;;;;;;1.27;0.57;;;5.50;99.90;;;;;;5068119;28;20097;-48
2022/02/06 15:10:44;;;;;;;0.77;0.47;;;5.40;99.90;;;;;;5068745;28;20275;-48
2022/02/06 15:13:11;;;;;;;0.75;0.52;;;5.40;99.90;;;;;;5068467;28;20074;-50
2022/02/06 15:15:41;;;;;;;0.60;0.60;;;5.30;99.90;;;;;;5067062;28;20586;-51
2022/02/06 15:18:23;;;;;;;0.98;0.73;;;5.20;99.90;;;;;;5067710;28;20086;-50
2022/02/06 15:20:51;;;;;;;0.55;0.38;;;5.20;99.90;;;;;;5068547;28;20552;-48
2022/02/06 15:23:17;;;;;;;3.10;0.50;;;5.10;99.90;;;;;;5068608;28;20128;-49
2022/02/06 15:25:42;;;;;;;0.68;0.50;;;5.00;99.90;;;;;;5068680;28;20020;-49
2022/02/06 15:28:08;;;;;;;0.93;0.45;;;4.90;99.90;;;;;;5066247;28;20036;-49
2022/02/06 15:30:33;;;;;;;0.57;0.50;;;4.80;99.90;;;;;;5054526;28;20024;-50
2022/02/06 15:32:59;;;;;;;0.88;0.40;;;4.70;99.90;;;;;;5060229;28;20122;-48
2022/02/06 15:35:24;;;;;;;0.60;0.60;;;4.60;99.90;;;;;;5068382;28;20024;-49
2022/02/06 15:37:50;;;;;;;0.63;0.60;;;4.50;99.90;;;;;;5058020;28;20453;-48
2022/02/06 15:40:18;;;;;;;0.60;0.60;;;4.50;99.90;;;;;;5028249;28;20511;-47